Time;durP1;ratioP1;P1;durP2;ratioP2;P2;SDS_P1;SDS_P2;PMS_P1;PMS_P2;Temp;Humidity;BMP_temperature;BMP_pressure;BME280_temperature;BME280_humidity;BME280_pressure;Samples;Min_cycle;Max_cycle;Signal;HPM_P1;HPM_P2
2022/01/12 00:02:18;;;;;;;0.63;0.63;;;3.50;99.90;2.90;103383.00;;;;5035564;28;20186;-63
2022/01/12 00:04:53;;;;;;;1.63;1.53;;;3.40;99.90;3.10;103374.00;;;;5035573;28;20718;-63
2022/01/12 00:07:19;;;;;;;0.60;0.60;;;3.40;99.90;3.30;103385.00;;;;5035779;28;20213;-64
2022/01/12 00:09:50;;;;;;;0.97;0.97;;;3.50;99.90;3.70;103387.00;;;;5051213;28;20183;-63
2022/01/12 00:12:21;;;;;;;0.50;0.50;;;3.80;99.90;3.20;103386.00;;;;5035842;28;20309;-63
2022/01/12 00:14:53;;;;;;;1.70;1.23;;;3.60;99.90;3.50;103378.00;;;;5035544;28;20214;-63
2022/01/12 00:17:22;;;;;;;8.03;2.53;;;3.60;99.90;3.90;103385.00;;;;5051100;28;20174;-64
2022/01/12 00:19:50;;;;;;;1.93;1.80;;;3.80;99.90;4.00;103386.00;;;;5035453;28;20174;-64
2022/01/12 00:22:24;;;;;;;0.30;0.30;;;4.00;99.90;3.80;103380.00;;;;5035496;28;20519;-64
2022/01/12 00:33:11;;;;;;;0.40;0.40;;;4.40;99.90;4.70;103348.00;;;;5048002;28;20280;-64
2022/01/12 00:35:44;;;;;;;1.33;1.33;;;4.50;99.90;4.50;103392.00;;;;5049257;28;20166;-64
2022/01/12 00:38:17;;;;;;;0.93;0.93;;;4.40;99.90;3.60;103383.00;;;;5050828;28;20168;-64
2022/01/12 00:40:51;;;;;;;2.17;1.87;;;4.10;99.90;3.10;103391.00;;;;5050702;28;20217;-63
2022/01/12 00:43:19;;;;;;;3.17;2.93;;;3.80;99.90;3.20;103409.00;;;;5050396;28;20179;-64
2022/01/12 00:45:46;;;;;;;0.37;0.37;;;3.60;99.90;2.80;103414.00;;;;5034973;28;20156;-63
2022/01/12 00:48:21;;;;;;;7.37;3.67;;;3.40;99.90;3.10;103424.00;;;;5049998;28;20191;-64
2022/01/12 00:50:52;;;;;;;0.93;0.93;;;3.40;99.90;3.00;103432.00;;;;5034975;28;20548;-63
2022/01/12 00:53:28;;;;;;;4.33;4.03;;;3.40;99.90;2.80;103420.00;;;;5034765;28;20581;-64
2022/01/12 00:55:59;;;;;;;3.87;3.47;;;3.30;99.90;3.60;103424.00;;;;5033704;28;20193;-64
2022/01/12 00:58:30;;;;;;;0.77;0.77;;;3.60;99.90;3.90;103419.00;;;;5050351;28;20213;-64
2022/01/12 01:01:02;;;;;;;0.40;0.40;;;3.70;99.90;3.70;103358.00;;;;5035102;28;20262;-64
2022/01/12 01:03:34;;;;;;;1.47;1.47;;;3.80;99.90;3.40;103398.00;;;;5034454;28;20186;-64
2022/01/12 01:06:08;;;;;;;1.63;1.53;;;3.60;99.90;3.30;103390.00;;;;5034759;28;20179;-64
2022/01/12 01:08:40;;;;;;;1.50;1.50;;;3.60;99.90;3.20;103382.00;;;;5049825;28;20205;-64
2022/01/12 01:11:12;;;;;;;1.57;0.97;;;3.60;99.90;3.00;103376.00;;;;5034662;28;20175;-64
2022/01/12 01:13:55;;;;;;;1.83;1.73;;;3.50;99.90;3.50;103390.00;;;;5034572;28;20175;-64
2022/01/12 01:16:45;;;;;;;0.83;0.60;;;3.50;99.90;3.50;103403.00;;;;5034238;28;20204;-64
2022/01/12 01:27:36;;;;;;;0.40;0.40;;;3.30;99.90;3.40;103430.00;;;;5047186;28;20189;-64
2022/01/12 01:30:03;;;;;;;9.90;2.93;;;3.30;99.90;3.30;103432.00;;;;5049422;28;20163;-64
2022/01/12 01:32:29;;;;;;;0.67;0.67;;;3.50;99.90;3.60;103373.00;;;;5048916;28;20242;-64
2022/01/12 01:34:58;;;;;;;1.10;1.10;;;3.60;99.90;2.90;103440.00;;;;5034017;28;20594;-64
2022/01/12 01:37:24;;;;;;;0.60;0.60;;;3.40;99.90;2.90;103456.00;;;;5049608;28;20214;-64
2022/01/12 01:39:50;;;;;;;0.40;0.40;;;3.30;99.90;3.00;103460.00;;;;5034080;28;20168;-63
2022/01/12 01:42:23;;;;;;;1.67;1.60;;;3.40;99.90;3.10;103460.00;;;;5034198;28;20175;-64
2022/01/12 01:55:33;;;;;;;4.70;4.50;;;3.20;99.90;3.20;103432.00;;;;5046867;28;20618;-64
2022/01/12 01:58:01;;;;;;;1.07;1.07;;;3.40;99.90;2.90;103426.00;;;;5048736;28;20640;-64
2022/01/12 02:00:32;;;;;;;2.13;2.03;;;3.30;99.90;3.00;103431.00;;;;5048685;28;20164;-64
2022/01/12 02:03:43;;;;;;;1.97;1.87;;;3.20;99.90;3.10;103414.00;;;;5048881;28;20199;-64
2022/01/12 02:06:10;;;;;;;2.40;2.20;;;3.30;99.90;2.80;103413.00;;;;5048340;28;20191;-63
2022/01/12 02:08:36;;;;;;;0.77;0.77;;;3.20;99.90;2.70;103369.00;;;;5048942;28;20230;-63
2022/01/12 02:11:03;;;;;;;4.13;3.03;;;3.10;99.90;2.90;103417.00;;;;5032664;28;20211;-64
2022/01/12 02:13:29;;;;;;;0.40;0.40;;;3.10;99.90;3.10;103426.00;;;;5048720;28;20171;-63
2022/01/12 02:15:58;;;;;;;1.43;1.37;;;3.10;99.90;3.10;103426.00;;;;5048569;28;20758;-64
2022/01/12 02:40:28;;;;;;;4.57;4.27;;;3.30;99.90;3.30;103469.00;;;;5046434;28;20638;-64
2022/01/12 02:43:29;;;;;;;0.60;0.60;;;3.40;99.90;3.40;103467.00;;;;5033205;28;20171;-64
2022/01/12 02:54:39;;;;;;;0.50;0.50;;;3.40;99.90;2.60;103464.00;;;;5022740;28;20199;-64
2022/01/12 02:57:05;;;;;;;2.30;2.20;;;3.10;99.90;2.70;103485.00;;;;5028278;28;20198;-64
2022/01/12 02:59:34;;;;;;;3.97;3.70;;;3.10;99.90;2.60;103480.00;;;;5032671;28;20175;-64
2022/01/12 03:02:28;;;;;;;0.40;0.40;;;3.10;99.90;3.20;103479.00;;;;5048211;28;20190;-64
2022/01/12 03:07:41;;;;;;;1.50;1.43;;;3.30;99.90;3.10;103449.00;;;;5032864;28;20555;-64
2022/01/12 03:10:10;;;;;;;0.40;0.40;;;3.30;99.90;3.20;103478.00;;;;5032999;28;20187;-64
2022/01/12 03:12:38;;;;;;;0.77;0.77;;;3.30;99.90;2.90;103481.00;;;;5047544;28;20584;-63
2022/01/12 03:15:05;;;;;;;3.80;3.50;;;3.30;99.90;2.90;103440.00;;;;5033100;28;20168;-64
2022/01/12 03:17:31;;;;;;;0.50;0.50;;;3.20;99.90;3.40;103474.00;;;;5048240;28;20171;-64
2022/01/12 03:19:57;;;;;;;0.50;0.50;;;3.40;99.90;3.00;103477.00;;;;5036414;28;20183;-64
2022/01/12 03:22:23;;;;;;;1.27;1.17;;;3.30;99.90;3.00;103432.00;;;;5052470;28;20199;-65
2022/01/12 03:24:49;;;;;;;1.07;1.07;;;3.30;99.90;3.30;103479.00;;;;5036863;28;20200;-65
2022/01/12 03:27:17;;;;;;;0.40;0.40;;;3.40;99.90;3.70;103449.00;;;;5036492;28;20173;-65
2022/01/12 03:29:48;;;;;;;0.40;0.40;;;3.50;99.90;4.00;103463.00;;;;5036703;28;20171;-64
2022/01/12 03:32:17;;;;;;;1.37;1.37;;;3.70;99.90;3.40;103480.00;;;;5036152;28;20341;-64
2022/01/12 03:34:54;;;;;;;0.60;0.60;;;3.70;99.90;3.00;103476.00;;;;5036577;28;20265;-64
2022/01/12 03:40:09;;;;;;;2.60;2.40;;;3.20;99.90;2.60;103479.00;;;;5036362;28;20648;-64
2022/01/12 03:42:36;;;;;;;0.40;0.40;;;3.10;99.90;3.10;103481.00;;;;5051428;28;20187;-64
2022/01/12 03:45:02;;;;;;;0.40;0.40;;;3.10;99.90;3.40;103482.00;;;;5051778;28;20175;-65
2022/01/12 03:47:28;;;;;;;0.40;0.40;;;3.30;99.90;3.70;103481.00;;;;5036097;28;20193;-65
2022/01/12 03:49:54;;;;;;;0.50;0.50;;;3.50;99.90;4.00;103481.00;;;;5036235;28;20182;-64
2022/01/12 03:52:25;;;;;;;0.40;0.40;;;3.70;99.90;3.10;103468.00;;;;5035925;28;20206;-63
2022/01/12 03:54:53;;;;;;;0.87;0.87;;;3.50;99.90;3.10;103483.00;;;;5035813;28;20183;-64
2022/01/12 03:57:20;;;;;;;1.63;1.53;;;3.30;99.90;3.40;103494.00;;;;5051190;28;20270;-63
2022/01/12 03:59:48;;;;;;;1.10;1.10;;;3.40;99.90;3.00;103493.00;;;;5036019;28;20175;-63
2022/01/12 04:02:14;;;;;;;0.70;0.70;;;3.30;99.90;3.20;103446.00;;;;5035729;28;20191;-63
2022/01/12 04:05:04;;;;;;;0.50;0.50;;;3.30;99.90;3.50;103503.00;;;;5035768;28;20630;-63
2022/01/12 04:10:15;;;;;;;7.67;6.93;;;3.50;99.90;3.10;103491.00;;;;5035485;28;20212;-63
2022/01/12 04:12:42;;;;;;;1.90;1.90;;;3.40;99.90;3.40;103496.00;;;;5035758;28;20199;-64
2022/01/12 04:15:08;;;;;;;5.40;5.00;;;3.40;99.90;3.40;103497.00;;;;5035594;28;20175;-62
2022/01/12 04:17:34;;;;;;;5.80;2.20;;;3.40;99.90;3.40;103496.00;;;;5035400;28;20167;-63
2022/01/12 04:20:03;;;;;;;0.50;0.50;;;3.50;99.90;3.80;103520.00;;;;5035450;28;20175;-63
2022/01/12 04:25:17;;;;;;;0.50;0.50;;;3.80;99.90;3.40;103512.00;;;;5048232;28;20196;-63
2022/01/12 04:27:43;;;;;;;0.50;0.50;;;3.60;99.90;2.80;103509.00;;;;5035359;28;20171;-62
2022/01/12 04:30:10;;;;;;;0.60;0.60;;;3.40;99.90;3.00;103513.00;;;;5035338;28;20561;-62
2022/01/12 04:32:40;;;;;;;0.40;0.40;;;3.20;99.90;2.80;103502.00;;;;5035215;28;20214;-62
2022/01/12 04:35:07;;;;;;;3.03;2.93;;;3.10;99.90;2.80;103503.00;;;;5035117;28;20185;-63
2022/01/12 04:37:32;;;;;;;0.40;0.40;;;3.10;99.90;2.80;103506.00;;;;5035018;28;20680;-63
2022/01/12 04:39:58;;;;;;;0.40;0.40;;;3.10;99.90;2.90;103477.00;;;;5034795;28;20178;-63
2022/01/12 04:42:24;;;;;;;4.40;4.20;;;3.10;99.90;3.30;103495.00;;;;5035108;28;20185;-63
2022/01/12 04:45:00;;;;;;;1.03;1.03;;;3.20;99.90;3.00;103485.00;;;;5034868;28;20252;-63
2022/01/12 04:47:46;;;;;;;1.57;1.47;;;3.30;99.90;2.70;103483.00;;;;5034700;28;20569;-63
2022/01/12 04:50:15;;;;;;;0.40;0.40;;;3.20;99.90;3.20;103496.00;;;;5034991;28;20531;-63
2022/01/12 04:52:46;;;;;;;0.90;0.90;;;3.30;99.90;3.30;103485.00;;;;5035061;28;20282;-63
2022/01/12 04:55:12;;;;;;;0.50;0.50;;;3.40;99.90;3.30;103492.00;;;;5049963;28;20186;-63
2022/01/12 04:57:41;;;;;;;0.40;0.40;;;3.40;99.90;3.10;103487.00;;;;5033438;28;20182;-63
2022/01/12 05:00:16;;;;;;;0.80;0.80;;;3.30;99.90;3.10;103498.00;;;;5050161;28;20201;-63
2022/01/12 05:13:42;;;;;;;1.50;1.43;;;3.50;99.90;3.30;103501.00;;;;5034324;28;20191;-63
2022/01/12 05:16:12;;;;;;;0.50;0.50;;;3.40;99.90;4.00;103502.00;;;;5049717;28;20658;-64
2022/01/12 05:18:40;;;;;;;0.40;0.40;;;3.70;99.90;3.60;103454.00;;;;5034594;28;20176;-63
2022/01/12 05:21:12;;;;;;;0.40;0.40;;;3.60;99.90;3.20;103513.00;;;;5050216;28;20171;-63
2022/01/12 05:23:46;;;;;;;0.80;0.80;;;3.50;99.90;3.80;103509.00;;;;5034389;28;20235;-64
2022/01/12 05:26:17;;;;;;;0.50;0.50;;;3.70;99.90;3.90;103519.00;;;;5034290;28;20175;-63
2022/01/12 05:28:55;;;;;;;0.50;0.50;;;3.70;99.90;3.30;103521.00;;;;5034521;28;20241;-63
2022/01/12 05:31:27;;;;;;;1.20;1.17;;;3.60;99.90;3.50;103497.00;;;;5049080;28;20654;-63
2022/01/12 05:34:00;;;;;;;0.40;0.40;;;3.60;99.90;3.40;103497.00;;;;5049353;28;20191;-63
2022/01/12 05:36:32;;;;;;;0.87;0.87;;;3.70;99.90;3.40;103490.00;;;;5049645;28;20163;-63
2022/01/12 05:38:59;;;;;;;3.93;3.70;;;3.60;99.90;3.50;103461.00;;;;5033629;28;20195;-63
2022/01/12 05:41:27;;;;;;;0.50;0.50;;;3.70;99.90;3.40;103496.00;;;;5033415;28;20653;-63
2022/01/12 05:43:54;;;;;;;0.63;0.63;;;3.60;99.90;3.20;103504.00;;;;5033819;28;20167;-63
2022/01/12 05:46:23;;;;;;;0.87;0.73;;;3.50;99.90;3.30;103508.00;;;;5034214;28;20179;-63
2022/01/12 05:51:35;;;;;;;1.10;1.10;;;3.60;99.90;4.30;103485.00;;;;5033753;28;20252;-64
2022/01/12 05:54:06;;;;;;;1.57;1.30;;;4.00;99.90;3.90;103489.00;;;;5049262;28;20179;-64
2022/01/12 05:56:38;;;;;;;0.60;0.60;;;3.90;99.90;4.10;103536.00;;;;5034046;28;20242;-63
2022/01/12 05:59:09;;;;;;;0.40;0.40;;;4.00;99.90;4.00;103536.00;;;;5048900;28;20623;-63
2022/01/12 06:01:35;;;;;;;0.50;0.50;;;3.90;99.90;3.40;103532.00;;;;5048909;28;20245;-63
2022/01/12 06:04:01;;;;;;;0.40;0.40;;;3.80;99.90;3.20;103522.00;;;;5033486;28;20174;-63
2022/01/12 06:06:27;;;;;;;0.47;0.47;;;3.50;99.90;3.30;103537.00;;;;5033240;28;20572;-63
2022/01/12 06:08:55;;;;;;;0.50;0.50;;;3.40;99.90;3.80;103529.00;;;;5048863;28;20171;-63
2022/01/12 06:11:26;;;;;;;0.40;0.40;;;3.60;99.90;3.70;103543.00;;;;5033319;28;20198;-63
2022/01/12 06:13:54;;;;;;;4.10;3.40;;;3.80;99.90;4.50;103549.00;;;;5033511;28;20175;-62
2022/01/12 06:16:20;;;;;;;0.60;0.60;;;4.00;99.90;3.80;103542.00;;;;5033327;28;20175;-63
2022/01/12 06:18:46;;;;;;;0.43;0.43;;;4.10;99.90;3.40;103536.00;;;;5033309;28;20175;-62
2022/01/12 06:21:12;;;;;;;0.70;0.70;;;3.80;99.90;4.40;103552.00;;;;5033073;28;20253;-62
2022/01/12 06:23:38;;;;;;;0.50;0.50;;;4.10;99.90;4.00;103562.00;;;;5033327;28;20206;-62
2022/01/12 06:26:09;;;;;;;1.37;1.37;;;4.10;99.90;3.40;103570.00;;;;5033444;28;20173;-62
2022/01/12 06:28:41;;;;;;;1.13;1.10;;;3.80;99.90;3.60;103569.00;;;;5033375;28;20201;-62
2022/01/12 06:31:10;;;;;;;6.47;3.37;;;3.80;99.90;3.80;103570.00;;;;5032762;28;20197;-62
2022/01/12 06:33:48;;;;;;;0.97;0.97;;;3.80;99.90;3.80;103581.00;;;;5033265;28;20281;-62
2022/01/12 06:36:21;;;;;;;4.03;3.63;;;3.90;99.90;3.60;103572.00;;;;5033044;28;20178;-62
2022/01/12 06:38:50;;;;;;;2.07;2.03;;;3.80;99.90;3.80;103562.00;;;;5048820;28;20190;-63
2022/01/12 06:41:16;;;;;;;0.50;0.50;;;3.80;99.90;3.50;103582.00;;;;5048595;28;20183;-63
2022/01/12 06:43:46;;;;;;;3.23;1.77;;;3.80;99.90;3.30;103582.00;;;;5033056;28;20693;-64
2022/01/12 06:46:15;;;;;;;1.80;1.80;;;3.70;99.90;4.20;103539.00;;;;5048152;28;20178;-64
2022/01/12 06:49:02;;;;;;;0.60;0.60;;;4.00;99.90;3.80;103593.00;;;;5033474;28;20186;-64
2022/01/12 06:51:35;;;;;;;14.00;12.40;;;3.90;99.90;4.50;103539.00;;;;5048078;28;20191;-64
2022/01/12 06:54:03;;;;;;;0.40;0.40;;;4.10;99.90;4.90;103586.00;;;;5035217;28;20179;-62
2022/01/12 06:56:34;;;;;;;0.50;0.50;;;4.50;99.90;4.40;103584.00;;;;5037109;28;20183;-63
2022/01/12 06:59:02;;;;;;;0.40;0.40;;;4.40;99.90;4.20;103588.00;;;;5037041;28;20190;-62
2022/01/12 07:01:28;;;;;;;2.43;2.20;;;4.20;99.90;4.20;103593.00;;;;5051855;28;20624;-62
2022/01/12 07:03:56;;;;;;;0.60;0.60;;;4.20;99.90;4.30;103593.00;;;;5036936;28;20555;-62
2022/01/12 07:06:28;;;;;;;1.23;1.23;;;4.10;99.90;5.20;103602.00;;;;5036740;28;20258;-63
2022/01/12 07:08:57;;;;;;;0.60;0.60;;;4.60;99.90;4.80;103597.00;;;;5036915;28;20514;-63
2022/01/12 07:11:23;;;;;;;3.60;3.50;;;4.70;99.90;4.80;103601.00;;;;5035386;28;20195;-62
2022/01/12 07:13:54;;;;;;;0.50;0.50;;;4.70;99.90;4.40;103603.00;;;;5036941;28;20217;-63
2022/01/12 07:16:25;;;;;;;1.33;1.33;;;4.60;99.90;4.90;103595.00;;;;5036554;28;20187;-62
2022/01/12 07:18:51;;;;;;;0.40;0.40;;;4.60;99.90;4.00;103595.00;;;;5036436;28;20175;-62
2022/01/12 07:21:19;;;;;;;0.40;0.40;;;4.30;99.90;4.50;103552.00;;;;5035871;28;20167;-63
2022/01/12 07:23:54;;;;;;;0.50;0.50;;;4.30;99.90;5.00;103598.00;;;;5052522;28;20623;-63
2022/01/12 07:26:22;;;;;;;2.10;2.00;;;4.50;99.90;4.50;103607.00;;;;5036607;28;20178;-63
2022/01/12 07:28:48;;;;;;;0.80;0.80;;;4.50;99.90;4.70;103562.00;;;;5036681;28;20179;-62
2022/01/12 07:31:23;;;;;;;5.57;2.27;;;4.50;99.90;4.80;103572.00;;;;5035352;28;20598;-62
2022/01/12 07:33:55;;;;;;;2.37;2.17;;;4.60;99.90;4.40;103615.00;;;;5034764;28;20183;-63
2022/01/12 07:37:03;;;;;;;0.40;0.40;;;4.50;99.90;4.40;103624.00;;;;5036345;28;20268;-63
2022/01/12 07:39:39;;;;;;;0.67;0.67;;;4.20;99.90;4.60;103630.00;;;;5036676;28;20179;-63
2022/01/12 07:42:05;;;;;;;0.73;0.73;;;4.50;99.90;4.20;103632.00;;;;5036078;28;20589;-63
2022/01/12 07:44:34;;;;;;;7.57;2.63;;;4.50;99.90;3.50;103639.00;;;;5036167;28;20745;-63
2022/01/12 07:47:00;;;;;;;3.13;3.03;;;4.10;99.90;4.40;103668.00;;;;5020800;28;20665;-63
2022/01/12 07:49:28;;;;;;;0.40;0.40;;;4.20;99.90;4.10;103669.00;;;;5016440;28;20266;-62
2022/01/12 07:52:07;;;;;;;1.80;1.17;;;4.30;99.90;4.10;103678.00;;;;5016185;28;20198;-63
2022/01/12 07:54:33;;;;;;;0.40;0.40;;;4.10;99.90;4.80;103649.00;;;;5016196;28;20167;-63
2022/01/12 07:57:02;;;;;;;1.33;1.30;;;4.50;99.90;4.40;103674.00;;;;5015997;28;20180;-62
2022/01/12 07:59:27;;;;;;;0.40;0.40;;;4.50;99.90;4.10;103680.00;;;;5024511;28;20198;-63
2022/01/12 08:01:56;;;;;;;2.27;2.17;;;4.30;99.90;4.20;103678.00;;;;5035624;28;20722;-63
2022/01/12 08:04:27;;;;;;;0.70;0.70;;;4.30;99.90;4.10;103650.00;;;;5035436;28;20281;-63
2022/01/12 08:06:56;;;;;;;0.90;0.90;;;4.40;99.90;3.90;103685.00;;;;5035819;28;20159;-63
2022/01/12 08:09:27;;;;;;;1.27;1.27;;;4.20;99.90;4.00;103698.00;;;;5034467;28;20175;-63
2022/01/12 08:11:56;;;;;;;0.40;0.40;;;4.20;99.90;4.00;103700.00;;;;5035438;28;20681;-62
2022/01/12 08:14:22;;;;;;;1.10;1.00;;;4.20;99.90;4.10;103695.00;;;;5035909;28;20184;-63
2022/01/12 08:16:48;;;;;;;0.40;0.40;;;4.20;99.90;4.80;103700.00;;;;5033975;28;20190;-63
2022/01/12 08:19:20;;;;;;;0.40;0.40;;;4.40;99.90;4.40;103699.00;;;;5035637;28;20183;-63
2022/01/12 08:21:48;;;;;;;0.40;0.40;;;4.50;99.90;4.70;103709.00;;;;5035407;28;20203;-63
2022/01/12 08:24:16;;;;;;;0.50;0.50;;;4.50;99.90;4.10;103708.00;;;;5035549;28;20161;-63
2022/01/12 08:26:54;;;;;;;0.50;0.50;;;4.40;99.90;4.80;103712.00;;;;5035567;28;20258;-63
2022/01/12 08:29:25;;;;;;;0.63;0.63;;;4.50;99.90;4.80;103716.00;;;;5035530;28;20498;-62
2022/01/12 08:31:58;;;;;;;1.23;1.13;;;4.70;99.90;4.80;103675.00;;;;5034876;28;20210;-63
2022/01/12 08:34:27;;;;;;;0.40;0.40;;;4.80;99.90;4.50;103716.00;;;;5035225;28;20168;-63
2022/01/12 08:36:53;;;;;;;6.80;5.57;;;4.70;99.90;4.20;103713.00;;;;5035581;28;20155;-63
2022/01/12 08:39:22;;;;;;;2.40;2.33;;;4.50;99.90;4.10;103717.00;;;;5035399;28;20170;-63
2022/01/12 08:41:48;;;;;;;5.70;1.90;;;4.40;99.90;4.70;103732.00;;;;5035371;28;20249;-63
2022/01/12 08:44:14;;;;;;;0.50;0.50;;;4.60;99.90;5.00;103707.00;;;;5033408;28;20183;-63
2022/01/12 08:46:43;;;;;;;1.30;1.30;;;4.80;99.90;5.30;103720.00;;;;5033243;28;20253;-63
2022/01/12 08:49:09;;;;;;;0.50;0.50;;;5.00;99.90;5.60;103729.00;;;;5034836;28;20626;-63
2022/01/12 08:51:39;;;;;;;0.93;0.93;;;5.20;99.90;5.40;103716.00;;;;5033595;28;20650;-63
2022/01/12 08:54:07;;;;;;;0.50;0.50;;;5.30;99.90;5.70;103734.00;;;;5032901;28;20192;-63
2022/01/12 08:56:37;;;;;;;2.87;1.60;;;5.40;99.90;5.40;103731.00;;;;5050355;28;20184;-63
2022/01/12 08:59:04;;;;;;;0.50;0.50;;;5.30;99.90;5.90;103694.00;;;;5033707;28;20169;-63
2022/01/12 09:01:29;;;;;;;0.50;0.50;;;5.50;99.90;5.60;103732.00;;;;5040309;28;20617;-63
2022/01/12 09:03:58;;;;;;;0.50;0.50;;;5.60;99.90;5.30;103731.00;;;;5014960;28;20205;-63
2022/01/12 09:06:27;;;;;;;1.77;1.67;;;5.40;99.90;5.60;103755.00;;;;5015062;28;20177;-63
2022/01/12 09:08:53;;;;;;;1.93;1.83;;;5.40;99.90;4.80;103750.00;;;;5014657;28;20511;-63
2022/01/12 09:11:19;;;;;;;0.40;0.40;;;5.20;99.90;4.40;103756.00;;;;5015141;28;20286;-63
2022/01/12 09:13:46;;;;;;;4.60;2.33;;;4.90;99.90;5.40;103722.00;;;;5033569;28;20197;-63
2022/01/12 09:16:15;;;;;;;2.17;2.07;;;5.10;99.90;5.30;103761.00;;;;5048641;28;20187;-62
2022/01/12 09:18:43;;;;;;;0.90;0.90;;;5.30;99.90;5.00;103761.00;;;;5033416;28;20183;-63
2022/01/12 09:21:11;;;;;;;0.60;0.60;;;5.10;99.90;5.50;103765.00;;;;5034644;28;20169;-63
2022/01/12 09:23:38;;;;;;;0.90;0.90;;;5.20;99.90;6.20;103776.00;;;;5034278;28;20178;-63
2022/01/12 09:26:05;;;;;;;0.50;0.50;;;5.60;99.90;5.80;103770.00;;;;5034513;28;20173;-62
2022/01/12 09:28:34;;;;;;;3.00;2.80;;;5.60;99.90;6.40;103779.00;;;;5034158;28;20208;-63
2022/01/12 09:31:00;;;;;;;2.80;2.60;;;5.90;99.90;6.10;103778.00;;;;5033853;28;20268;-63
2022/01/12 09:33:26;;;;;;;2.00;1.83;;;5.90;99.90;6.40;103792.00;;;;5034314;28;20299;-63
2022/01/12 09:35:53;;;;;;;4.73;3.57;;;6.00;99.90;6.60;103793.00;;;;5032431;28;20176;-63
2022/01/12 09:38:23;;;;;;;1.60;1.60;;;6.20;99.90;6.70;103788.00;;;;5033809;28;20197;-63
2022/01/12 09:40:53;;;;;;;0.60;0.60;;;6.40;99.90;6.80;103793.00;;;;5032697;28;20224;-63
2022/01/12 09:43:42;;;;;;;0.80;0.80;;;6.40;99.90;7.00;103813.00;;;;5033210;28;20194;-63
2022/01/12 09:46:13;;;;;;;8.87;5.50;;;6.60;99.90;6.80;103791.00;;;;5033984;28;20174;-63
2022/01/12 09:48:46;;;;;;;0.70;0.70;;;6.50;99.90;6.20;103757.00;;;;5033775;28;20176;-62
2022/01/12 09:51:11;;;;;;;0.60;0.60;;;6.30;99.90;6.80;103788.00;;;;5033548;28;20180;-63
2022/01/12 09:53:41;;;;;;;2.30;2.20;;;6.40;99.90;7.10;103809.00;;;;5033679;28;20632;-63
2022/01/12 09:56:21;;;;;;;1.90;1.80;;;6.70;99.90;7.10;103812.00;;;;5033693;28;20556;-64
2022/01/12 09:58:54;;;;;;;0.60;0.60;;;6.70;99.90;6.80;103780.00;;;;5032207;28;20626;-65
2022/01/12 10:01:39;;;;;;;0.60;0.60;;;6.70;99.90;7.00;103817.00;;;;5032217;28;20181;-65
2022/01/12 10:04:30;;;;;;;3.10;1.33;;;6.70;99.90;6.80;103816.00;;;;5032262;28;20274;-65
2022/01/12 10:07:06;;;;;;;3.33;2.43;;;6.60;99.90;7.00;103813.00;;;;5048903;28;20276;-63
2022/01/12 10:09:36;;;;;;;2.07;1.97;;;6.70;99.90;6.90;103775.00;;;;5032440;28;20169;-63
2022/01/12 10:12:17;;;;;;;2.43;1.67;;;6.70;99.90;7.20;103815.00;;;;5032585;28;20232;-63
2022/01/12 10:15:00;;;;;;;0.63;0.63;;;6.80;99.90;6.90;103820.00;;;;5028868;28;20274;-63
2022/01/12 10:17:38;;;;;;;1.57;1.30;;;6.80;99.90;6.40;103815.00;;;;5026735;28;20180;-63
2022/01/12 10:20:23;;;;;;;1.80;1.70;;;6.60;99.90;6.00;103819.00;;;;5033250;28;20210;-62
2022/01/12 10:33:31;;;;;;;1.80;0.87;;;5.30;99.90;5.00;103831.00;;;;5070592;28;20947;-64
2022/01/12 10:36:06;;;;;;;3.73;2.63;;;5.20;99.90;5.00;103853.00;;;;5062519;28;20178;-64
2022/01/12 10:38:41;;;;;;;0.67;0.67;;;5.40;99.90;5.40;103848.00;;;;5046951;28;20582;-64
2022/01/12 10:41:10;;;;;;;2.40;2.30;;;5.50;99.90;6.30;103849.00;;;;5050477;28;20182;-64
2022/01/12 10:43:53;;;;;;;0.40;0.40;;;5.80;99.90;6.00;103841.00;;;;5050596;28;20171;-64
2022/01/12 10:46:20;;;;;;;2.50;2.40;;;5.80;99.90;6.00;103850.00;;;;5050105;28;20165;-64
2022/01/12 10:48:55;;;;;;;1.27;1.27;;;5.90;99.90;5.70;103850.00;;;;5050295;28;20631;-64
2022/01/12 10:51:27;;;;;;;0.60;0.60;;;5.80;99.90;5.50;103848.00;;;;5047169;28;20239;-63
2022/01/12 10:54:00;;;;;;;2.67;1.77;;;5.70;99.90;6.00;103841.00;;;;5034647;28;20186;-62
2022/01/12 10:56:26;;;;;;;0.83;0.83;;;5.90;99.90;5.50;103857.00;;;;5048703;28;20180;-63
2022/01/12 10:58:55;;;;;;;2.67;2.43;;;5.70;99.90;6.50;103806.00;;;;5050312;28;20181;-65
2022/01/12 11:01:27;;;;;;;0.60;0.60;;;6.00;99.90;6.90;103842.00;;;;5048856;28;20213;-63
2022/01/12 11:03:57;;;;;;;9.73;5.50;;;6.40;99.90;6.60;103834.00;;;;5048842;28;20176;-63
2022/01/12 11:06:26;;;;;;;0.60;0.60;;;6.50;99.90;6.20;103827.00;;;;5049312;28;20247;-63
2022/01/12 11:08:55;;;;;;;3.80;3.60;;;6.30;99.90;7.00;103828.00;;;;5048772;28;20189;-63
2022/01/12 11:11:21;;;;;;;0.57;0.57;;;6.50;99.90;7.10;103832.00;;;;5033368;28;20208;-63
2022/01/12 11:13:52;;;;;;;1.37;1.10;;;6.70;99.90;6.80;103827.00;;;;5045591;28;20178;-64
2022/01/12 11:16:59;;;;;;;0.67;0.67;;;6.70;99.90;7.20;103814.00;;;;5032204;28;20278;-65
2022/01/12 11:19:50;;;;;;;1.80;1.80;;;6.80;99.90;7.00;103814.00;;;;5029185;28;20226;-63
2022/01/12 11:22:54;;;;;;;0.50;0.50;;;6.80;99.90;6.80;103839.00;;;;5062536;28;20226;-63
2022/01/12 11:25:49;;;;;;;0.60;0.60;;;6.70;99.90;7.00;103826.00;;;;5047509;28;20193;-63
2022/01/12 11:28:27;;;;;;;1.53;1.53;;;6.70;99.90;6.60;103818.00;;;;5049462;28;20200;-63
2022/01/12 11:30:55;;;;;;;0.60;0.60;;;6.80;99.90;6.20;103805.00;;;;5049872;28;20624;-63
2022/01/12 11:33:44;;;;;;;1.10;1.07;;;6.50;99.90;6.20;103807.00;;;;5049559;28;20185;-62
2022/01/12 11:36:24;;;;;;;1.20;1.20;;;6.30;99.90;6.40;103825.00;;;;5049128;28;20202;-64
2022/01/12 11:39:11;;;;;;;2.60;2.40;;;6.30;99.90;6.30;103828.00;;;;5049626;28;20166;-64
2022/01/12 11:41:48;;;;;;;7.63;6.43;;;6.20;99.90;6.50;103787.00;;;;5049408;28;20241;-64
2022/01/12 11:44:18;;;;;;;1.20;1.20;;;6.40;99.90;6.50;103816.00;;;;5038466;28;20166;-64
2022/01/12 11:46:51;;;;;;;0.87;0.87;;;6.40;99.90;6.20;103822.00;;;;5036336;28;20709;-64
2022/01/12 11:49:40;;;;;;;1.13;1.13;;;6.30;99.90;6.90;103835.00;;;;5036308;28;20196;-64
2022/01/12 11:52:16;;;;;;;0.80;0.80;;;6.70;99.90;7.30;103843.00;;;;5035640;28;20287;-64
2022/01/12 11:55:16;;;;;;;1.63;1.53;;;6.90;99.90;7.10;103834.00;;;;5051224;28;20184;-63
2022/01/12 11:57:50;;;;;;;0.67;0.67;;;6.90;99.90;7.30;103830.00;;;;5035707;28;20526;-63
2022/01/12 12:00:20;;;;;;;0.70;0.70;;;7.00;99.90;6.80;103824.00;;;;5034649;28;20181;-64
2022/01/12 12:02:54;;;;;;;3.03;2.90;;;6.90;99.90;7.20;103827.00;;;;5024703;28;20205;-64
2022/01/12 12:05:38;;;;;;;0.70;0.70;;;7.10;99.90;6.10;103829.00;;;;5034500;28;20166;-64
2022/01/12 12:08:10;;;;;;;4.33;2.73;;;6.60;99.90;6.40;103838.00;;;;5035536;28;20633;-63
2022/01/12 12:10:46;;;;;;;1.80;1.80;;;6.40;99.90;6.70;103804.00;;;;5050632;28;20166;-63
2022/01/12 12:13:23;;;;;;;1.03;1.03;;;6.50;99.90;6.40;103838.00;;;;5050504;28;20221;-63
2022/01/12 12:16:09;;;;;;;2.27;2.17;;;6.40;99.90;7.00;103827.00;;;;5051150;28;20230;-63
2022/01/12 12:18:50;;;;;;;11.57;6.93;;;6.70;99.90;6.40;103821.00;;;;5050135;28;20211;-63
2022/01/12 12:21:27;;;;;;;0.60;0.60;;;6.40;99.90;5.70;103810.00;;;;5034323;28;20197;-64
2022/01/12 12:24:14;;;;;;;0.80;0.80;;;6.20;99.90;6.00;103801.00;;;;5034121;28;20182;-62
2022/01/12 12:27:02;;;;;;;6.90;4.33;;;6.10;99.90;5.00;103817.00;;;;5034012;28;20553;-64
2022/01/12 12:29:28;;;;;;;0.57;0.57;;;5.70;99.90;5.80;103818.00;;;;5033812;28;20188;-65
2022/01/12 12:31:56;;;;;;;1.37;1.37;;;5.70;99.90;5.60;103816.00;;;;5035103;28;20244;-65
2022/01/12 12:34:31;;;;;;;2.40;2.30;;;5.80;99.90;6.00;103824.00;;;;5035111;28;20186;-64
2022/01/12 12:37:34;;;;;;;1.70;1.60;;;5.90;99.90;6.60;103821.00;;;;5035378;28;20207;-65
2022/01/12 12:40:20;;;;;;;0.97;0.97;;;6.30;99.90;6.80;103826.00;;;;5033698;28;20616;-64
2022/01/12 12:43:24;;;;;;;0.50;0.50;;;6.50;99.90;5.90;103821.00;;;;5035014;28;20184;-63
2022/01/12 12:46:07;;;;;;;1.87;1.77;;;6.20;99.90;5.20;103822.00;;;;5034339;28;20254;-64
2022/01/12 12:48:43;;;;;;;3.90;1.80;;;5.90;99.90;5.20;103821.00;;;;5033545;28;20578;-63
2022/01/12 12:51:19;;;;;;;6.90;5.17;;;5.70;99.90;5.40;103825.00;;;;5033586;28;20618;-63
2022/01/12 12:53:54;;;;;;;1.30;1.30;;;5.60;99.90;5.30;103817.00;;;;5033141;28;20182;-62
2022/01/12 12:56:39;;;;;;;0.53;0.53;;;5.40;99.90;6.10;103805.00;;;;5030150;28;20667;-63
2022/01/12 12:59:13;;;;;;;0.57;0.57;;;5.70;99.90;6.30;103816.00;;;;5048846;28;20227;-63